createdAt,value
2023-05-07T00:01:30.806Z,48.23
2023-05-07T00:03:59.127Z,49.16
2023-05-07T00:06:30.105Z,49.98
2023-05-07T00:09:00.506Z,50.70
2023-05-07T00:11:29.475Z,51.63
2023-05-07T00:13:57.688Z,51.98
2023-05-07T00:16:27.428Z,52.71
2023-05-07T00:18:55.765Z,53.30
2023-05-07T00:21:27.625Z,53.25
2023-05-07T00:23:56.143Z,53.43
2023-05-07T00:26:26.120Z,53.68
2023-05-07T00:28:55.525Z,54.17
2023-05-07T00:31:24.270Z,54.33
2023-05-07T00:33:52.636Z,54.55
2023-05-07T00:36:21.195Z,54.28
2023-05-07T00:38:49.464Z,54.27
2023-05-07T00:41:18.149Z,54.58
2023-05-07T00:43:46.475Z,54.77
2023-05-07T00:46:15.876Z,54.70
2023-05-07T00:48:44.447Z,54.78
2023-05-07T00:51:13.064Z,54.55
2023-05-07T00:53:41.356Z,54.65
2023-05-07T00:56:09.994Z,54.58
2023-05-07T00:58:38.433Z,54.50
2023-05-07T01:01:07.630Z,54.98
2023-05-07T01:03:36.363Z,54.81
2023-05-07T01:06:06.763Z,54.82
2023-05-07T01:08:36.334Z,54.76
2023-05-07T01:11:06.106Z,54.53
2023-05-07T01:13:35.929Z,54.69
2023-05-07T01:16:05.218Z,54.62
2023-05-07T01:18:33.724Z,54.97
2023-05-07T01:21:03.087Z,55.08
2023-05-07T01:23:31.538Z,54.69
2023-05-07T01:26:01.370Z,54.86
2023-05-07T01:28:31.654Z,54.93
2023-05-07T01:31:05.462Z,54.87
2023-05-07T01:33:36.319Z,54.88
2023-05-07T01:36:07.463Z,54.91
2023-05-07T01:38:37.595Z,54.96
2023-05-07T01:41:06.324Z,55.04
2023-05-07T01:43:34.573Z,55.17
2023-05-07T01:46:03.585Z,55.04
2023-05-07T01:48:32.045Z,55.08
2023-05-07T01:51:00.653Z,55.03
2023-05-07T01:53:29.728Z,55.20
2023-05-07T01:55:58.322Z,55.10
2023-05-07T01:58:27.699Z,55.09
2023-05-07T02:00:56.402Z,55.00
2023-05-07T02:03:24.960Z,55.19
2023-05-07T02:06:02.592Z,55.20
2023-05-07T02:08:37.217Z,55.35
2023-05-07T02:11:06.078Z,55.52
2023-05-07T02:13:35.855Z,55.40
2023-05-07T02:16:05.033Z,55.43
2023-05-07T02:18:33.501Z,55.59
2023-05-07T02:21:02.469Z,55.68
2023-05-07T02:23:30.848Z,55.80
2023-05-07T02:25:59.798Z,55.88
2023-05-07T02:28:28.754Z,55.73
2023-05-07T02:31:05.675Z,55.54
2023-05-07T02:33:36.153Z,55.98
2023-05-07T02:36:08.929Z,55.76
2023-05-07T02:38:39.253Z,55.94
2023-05-07T02:41:08.193Z,55.92
2023-05-07T02:43:36.728Z,56.41
2023-05-07T02:46:06.838Z,56.28
2023-05-07T02:48:38.340Z,56.55
2023-05-07T02:51:06.977Z,56.51
2023-05-07T02:53:37.314Z,56.44
2023-05-07T02:56:07.700Z,56.64
2023-05-07T02:58:35.977Z,56.65
2023-05-07T03:01:07.174Z,56.61
2023-05-07T03:03:43.070Z,56.74
2023-05-07T03:06:11.666Z,56.64
2023-05-07T03:08:39.973Z,56.78
2023-05-07T03:11:08.605Z,57.04
2023-05-07T03:13:36.875Z,57.36
2023-05-07T03:16:05.905Z,57.16
2023-05-07T03:18:34.350Z,57.25
2023-05-07T03:21:03.146Z,57.64
2023-05-07T03:23:34.191Z,57.73
2023-05-07T03:26:02.817Z,57.57
2023-05-07T03:28:31.123Z,57.38
2023-05-07T03:31:04.106Z,57.50
2023-05-07T03:33:35.457Z,57.59
2023-05-07T03:36:04.356Z,57.37
2023-05-07T03:38:32.748Z,57.69
2023-05-07T03:41:01.404Z,57.60
2023-05-07T03:43:30.582Z,57.63
2023-05-07T03:46:05.912Z,57.54
2023-05-07T03:48:34.301Z,57.51
2023-05-07T03:51:03.235Z,57.72
2023-05-07T03:53:34.663Z,58.27
2023-05-07T03:56:05.236Z,57.90
2023-05-07T03:58:37.547Z,57.64
2023-05-07T04:01:10.640Z,57.64
2023-05-07T04:03:39.088Z,57.98
2023-05-07T04:06:08.736Z,58.68
2023-05-07T04:08:38.334Z,58.81
2023-05-07T04:11:08.763Z,58.35
2023-05-07T04:13:39.153Z,58.82
2023-05-07T04:16:09.871Z,58.63
2023-05-07T04:18:39.865Z,58.63
2023-05-07T04:21:19.325Z,57.92
2023-05-07T04:23:49.058Z,57.33
2023-05-07T04:26:17.726Z,57.07
2023-05-07T04:28:47.256Z,57.99
2023-05-07T04:31:17.675Z,57.45
2023-05-07T04:33:49.568Z,57.42
2023-05-07T04:36:18.464Z,56.76
2023-05-07T04:38:55.690Z,56.13
2023-05-07T04:41:24.349Z,55.91
2023-05-07T04:43:52.738Z,55.72
2023-05-07T04:46:26.022Z,55.63
2023-05-07T04:48:56.639Z,55.93
2023-05-07T04:51:25.754Z,55.97
2023-05-07T04:53:54.741Z,56.20
2023-05-07T04:56:23.457Z,56.09
2023-05-07T04:58:52.182Z,55.73
2023-05-07T05:01:23.272Z,56.16
2023-05-07T05:03:51.741Z,56.18
2023-05-07T05:06:22.015Z,56.27
2023-05-07T05:08:51.936Z,55.95
2023-05-07T05:11:20.666Z,55.82
2023-05-07T05:13:50.624Z,56.26
2023-05-07T05:16:22.512Z,56.16
2023-05-07T05:18:53.190Z,56.12
2023-05-07T05:21:23.132Z,56.32
2023-05-07T05:23:55.317Z,56.26
2023-05-07T05:26:27.539Z,55.82
2023-05-07T05:28:55.836Z,55.97
2023-05-07T05:31:26.736Z,55.69
2023-05-07T05:33:55.021Z,55.75
2023-05-07T05:36:24.777Z,56.00
2023-05-07T05:38:57.446Z,56.16
2023-05-07T05:41:26.184Z,55.84
2023-05-07T05:43:54.817Z,55.45
2023-05-07T05:46:24.035Z,55.63
2023-05-07T05:48:53.631Z,55.64
2023-05-07T05:51:23.512Z,55.19
2023-05-07T05:53:52.296Z,55.26
2023-05-07T05:56:22.460Z,54.92
2023-05-07T05:58:50.910Z,54.61
2023-05-07T06:01:21.825Z,54.69
2023-05-07T06:03:52.393Z,54.62
2023-05-07T06:06:21.095Z,54.38
2023-05-07T06:08:49.539Z,54.40
2023-05-07T06:11:23.565Z,54.19
2023-05-07T06:13:52.549Z,54.26
2023-05-07T06:16:21.571Z,54.27
2023-05-07T06:18:50.144Z,54.02
2023-05-07T06:21:19.458Z,54.43
2023-05-07T06:23:48.022Z,54.63
2023-05-07T06:26:16.675Z,54.54
2023-05-07T06:28:48.791Z,54.30
2023-05-07T06:31:22.832Z,54.66
2023-05-07T06:33:56.630Z,55.13
2023-05-07T06:36:30.328Z,55.00
2023-05-07T06:39:00.266Z,55.24
2023-05-07T06:41:28.927Z,54.65
2023-05-07T06:44:06.284Z,54.17
2023-05-07T06:46:46.583Z,53.80
2023-05-07T06:49:16.554Z,54.02
2023-05-07T06:51:45.650Z,54.38
2023-05-07T06:54:14.114Z,54.03
2023-05-07T06:56:44.205Z,53.68
2023-05-07T06:59:12.718Z,53.81
2023-05-07T07:01:43.373Z,54.16
2023-05-07T07:04:14.180Z,54.77
2023-05-07T07:06:45.268Z,55.36
2023-05-07T07:09:15.121Z,55.28
2023-05-07T07:11:44.382Z,55.54
2023-05-07T07:14:12.902Z,56.23
2023-05-07T07:16:49.154Z,55.90
2023-05-07T07:19:21.501Z,55.75
2023-05-07T07:21:53.329Z,56.21
2023-05-07T07:24:22.677Z,56.73
2023-05-07T07:26:56.664Z,56.71
2023-05-07T07:29:27.956Z,56.72
2023-05-07T07:31:57.481Z,56.70
2023-05-07T07:34:26.439Z,56.40
2023-05-07T07:36:55.472Z,56.48
2023-05-07T07:39:23.948Z,56.65
2023-05-07T07:41:56.139Z,56.58
2023-05-07T07:44:24.798Z,55.98
2023-05-07T07:47:00.292Z,55.54
2023-05-07T07:49:29.955Z,55.00
2023-05-07T07:52:01.811Z,54.84
2023-05-07T07:54:31.870Z,54.73
2023-05-07T07:57:03.416Z,55.43
2023-05-07T07:59:34.787Z,55.26
2023-05-07T08:02:03.600Z,55.19
2023-05-07T08:04:34.342Z,55.50
2023-05-07T08:07:07.100Z,55.62
2023-05-07T08:09:39.822Z,54.72
2023-05-07T08:12:09.241Z,54.53
2023-05-07T08:14:38.579Z,55.17
2023-05-07T08:17:10.989Z,55.02
2023-05-07T08:19:40.583Z,54.78
2023-05-07T08:22:15.214Z,54.72
2023-05-07T08:24:44.137Z,54.47
2023-05-07T08:27:13.768Z,54.12
2023-05-07T08:29:49.145Z,52.24
2023-05-07T08:32:20.315Z,51.91
2023-05-07T08:34:49.388Z,51.75
2023-05-07T08:37:19.388Z,51.66
2023-05-07T08:39:48.221Z,51.76
2023-05-07T08:42:22.564Z,52.20
2023-05-07T08:44:54.293Z,52.24
2023-05-07T08:47:24.844Z,52.80
2023-05-07T08:49:56.728Z,53.95
2023-05-07T08:52:28.193Z,53.75
2023-05-07T08:54:57.603Z,53.68
2023-05-07T08:57:28.635Z,53.41
2023-05-07T08:59:57.973Z,53.16
2023-05-07T09:02:26.672Z,53.26
2023-05-07T09:04:56.931Z,53.03
2023-05-07T09:07:27.873Z,53.26
2023-05-07T09:09:56.819Z,51.96
2023-05-07T09:12:25.652Z,51.10
2023-05-07T09:14:54.140Z,50.69
2023-05-07T09:17:22.953Z,50.66
2023-05-07T09:19:51.821Z,51.13
2023-05-07T09:22:20.600Z,51.22
2023-05-07T09:24:57.121Z,50.98
2023-05-07T09:27:28.709Z,51.44
2023-05-07T09:29:58.697Z,51.81
2023-05-07T09:32:29.376Z,52.04
2023-05-07T09:35:00.290Z,51.75
2023-05-07T09:37:32.424Z,51.59
2023-05-07T09:40:01.742Z,51.11
2023-05-07T09:42:32.671Z,50.94
2023-05-07T09:45:06.938Z,50.80
2023-05-07T09:47:39.817Z,50.21
2023-05-07T09:50:08.670Z,49.88
2023-05-07T09:52:37.290Z,49.35
2023-05-07T09:55:08.590Z,49.73
2023-05-07T09:57:37.336Z,49.92
2023-05-07T10:00:10.471Z,49.65
2023-05-07T10:02:53.579Z,49.36
2023-05-07T10:05:30.405Z,49.87
2023-05-07T10:08:03.301Z,50.47
2023-05-07T10:10:35.094Z,50.95
2023-05-07T10:13:07.118Z,50.51
2023-05-07T10:15:36.694Z,50.80
2023-05-07T10:18:06.467Z,51.10
2023-05-07T10:20:36.055Z,50.93
2023-05-07T10:23:07.163Z,50.48
2023-05-07T10:25:42.926Z,50.83
2023-05-07T10:28:21.009Z,50.61
2023-05-07T10:31:44.305Z,50.70
2023-05-07T10:34:15.343Z,50.31
2023-05-07T10:36:44.343Z,50.66
2023-05-07T10:39:13.101Z,50.28
2023-05-07T10:41:42.253Z,50.06
2023-05-07T10:44:12.917Z,49.91
2023-05-07T10:46:41.379Z,49.89
2023-05-07T10:49:17.497Z,49.55
2023-05-07T10:52:21.035Z,49.32
2023-05-07T10:55:18.890Z,48.64
2023-05-07T11:02:12.214Z,48.36
2023-05-07T11:05:23.984Z,48.46
2023-05-07T11:08:03.458Z,48.39
2023-05-07T11:10:58.229Z,48.60
2023-05-07T11:13:48.738Z,48.71
2023-05-07T11:16:40.219Z,48.13
2023-05-07T11:19:58.751Z,48.10
2023-05-07T11:22:38.609Z,48.10
2023-05-07T11:25:33.471Z,48.04
2023-05-07T11:28:18.060Z,47.93
2023-05-07T11:30:58.311Z,47.38
2023-05-07T11:33:27.185Z,46.91
2023-05-07T11:35:58.376Z,46.66
2023-05-07T11:38:36.431Z,46.61
2023-05-07T11:41:06.514Z,46.58
2023-05-07T11:43:36.832Z,46.29
2023-05-07T11:46:12.667Z,46.12
2023-05-07T11:48:41.204Z,46.37
2023-05-07T11:51:10.320Z,46.10
2023-05-07T11:53:41.109Z,46.28
2023-05-07T11:56:13.000Z,46.29
2023-05-07T11:58:41.981Z,46.74
2023-05-07T12:01:11.647Z,45.88
2023-05-07T12:03:43.958Z,45.10
2023-05-07T12:06:17.973Z,45.02
2023-05-07T12:08:48.358Z,44.67
2023-05-07T12:11:24.069Z,44.68
2023-05-07T12:13:53.026Z,45.25
2023-05-07T12:16:21.925Z,44.63
2023-05-07T12:18:51.221Z,44.26
2023-05-07T12:21:20.066Z,44.38
2023-05-07T12:23:49.095Z,44.35
2023-05-07T12:26:18.208Z,44.54
2023-05-07T12:28:46.736Z,43.85
2023-05-07T12:31:16.246Z,43.63
2023-05-07T12:33:44.744Z,43.65
2023-05-07T12:36:14.498Z,43.29
2023-05-07T12:38:43.006Z,43.12
2023-05-07T12:41:13.765Z,43.41
2023-05-07T12:43:46.897Z,43.87
2023-05-07T12:46:17.837Z,44.20
2023-05-07T12:48:49.667Z,43.43
2023-05-07T12:51:18.436Z,42.68
2023-05-07T12:53:47.235Z,42.61
2023-05-07T12:56:17.404Z,42.58
2023-05-07T12:58:46.001Z,41.97
2023-05-07T13:01:16.810Z,42.15
2023-05-07T13:03:49.770Z,41.38
2023-05-07T13:06:18.917Z,41.77
2023-05-07T13:08:47.447Z,41.69
2023-05-07T13:11:16.511Z,41.53
2023-05-07T13:13:45.001Z,41.59
2023-05-07T13:16:13.899Z,41.72
2023-05-07T13:18:45.039Z,41.81
2023-05-07T13:21:14.608Z,41.79
2023-05-07T13:23:43.192Z,41.77
2023-05-07T13:26:25.441Z,41.65
2023-05-07T13:28:55.834Z,41.02
2023-05-07T13:31:25.721Z,41.37
2023-05-07T13:33:54.309Z,41.32
2023-05-07T13:36:23.096Z,41.09
2023-05-07T13:38:53.040Z,41.12
2023-05-07T13:41:22.217Z,40.44
2023-05-07T13:43:50.668Z,40.72
2023-05-07T13:46:19.807Z,40.38
2023-05-07T13:48:48.335Z,40.49
2023-05-07T13:51:18.133Z,40.74
2023-05-07T13:53:46.617Z,40.52
2023-05-07T13:56:16.064Z,40.86
2023-05-07T13:58:56.427Z,40.97
2023-05-07T14:01:28.412Z,41.15
2023-05-07T14:03:59.179Z,41.27
2023-05-07T14:06:28.151Z,41.24
2023-05-07T14:08:59.278Z,40.82
2023-05-07T14:11:28.261Z,40.94
2023-05-07T14:13:58.210Z,41.18
2023-05-07T14:16:27.057Z,41.35
2023-05-07T14:18:57.823Z,41.05
2023-05-07T14:21:27.551Z,41.14
2023-05-07T14:23:57.941Z,40.61
2023-05-07T14:26:28.289Z,41.05
2023-05-07T14:28:59.689Z,41.25
2023-05-07T14:31:28.938Z,40.93
2023-05-07T14:33:59.217Z,40.88
2023-05-07T14:36:28.342Z,40.63
2023-05-07T14:38:56.976Z,40.73
2023-05-07T14:41:25.965Z,41.01
2023-05-07T14:43:54.565Z,41.18
2023-05-07T14:46:23.531Z,41.19
2023-05-07T14:48:52.127Z,40.61
2023-05-07T14:51:21.101Z,40.99
2023-05-07T14:53:49.636Z,40.75
2023-05-07T14:56:18.718Z,40.90
2023-05-07T14:58:49.078Z,40.58
2023-05-07T15:01:17.818Z,40.93
2023-05-07T15:03:47.155Z,40.74
2023-05-07T15:06:15.728Z,40.88
2023-05-07T15:08:44.547Z,40.92
2023-05-07T15:11:13.201Z,41.14
2023-05-07T15:13:44.104Z,41.32
2023-05-07T15:16:12.884Z,41.05
2023-05-07T15:18:41.906Z,41.05
2023-05-07T15:21:10.586Z,40.43
2023-05-07T15:23:39.791Z,40.54
2023-05-07T15:26:09.354Z,40.55
2023-05-07T15:28:40.411Z,40.41
2023-05-07T15:31:10.468Z,40.72
2023-05-07T15:33:39.374Z,40.84
2023-05-07T15:36:08.078Z,40.78
2023-05-07T15:38:37.027Z,40.91
2023-05-07T15:41:05.557Z,41.19
2023-05-07T15:43:34.395Z,41.25
2023-05-07T15:46:03.079Z,41.60
2023-05-07T15:48:32.108Z,41.55
2023-05-07T15:51:00.684Z,41.39
2023-05-07T15:53:29.665Z,41.58
2023-05-07T15:55:58.263Z,41.63
2023-05-07T15:58:28.160Z,41.68
2023-05-07T16:00:56.787Z,41.57
2023-05-07T16:03:27.857Z,41.59
2023-05-07T16:06:01.358Z,41.90
2023-05-07T16:08:30.967Z,41.83
2023-05-07T16:10:59.630Z,42.10
2023-05-07T16:13:28.571Z,42.30
2023-05-07T16:15:58.813Z,42.45
2023-05-07T16:18:27.749Z,42.51
2023-05-07T16:20:56.652Z,42.55
2023-05-07T16:23:25.995Z,42.75
2023-05-07T16:25:54.848Z,42.63
2023-05-07T16:28:25.625Z,42.42
2023-05-07T16:30:54.540Z,42.61
2023-05-07T16:33:23.438Z,42.52
2023-05-07T16:35:54.737Z,42.33
2023-05-07T16:38:23.680Z,42.75
2023-05-07T16:40:52.699Z,43.02
2023-05-07T16:43:21.559Z,43.10
2023-05-07T16:45:50.321Z,43.35
2023-05-07T16:48:21.143Z,43.34
2023-05-07T16:50:50.098Z,43.54
2023-05-07T16:53:20.065Z,43.82
2023-05-07T16:55:48.665Z,43.97
2023-05-07T16:58:17.639Z,43.88
2023-05-07T17:00:50.513Z,44.05
2023-05-07T17:03:20.355Z,44.39
2023-05-07T17:05:49.195Z,44.39
2023-05-07T17:08:18.107Z,44.47
2023-05-07T17:10:46.914Z,44.31
2023-05-07T17:13:16.079Z,44.77
2023-05-07T17:15:46.742Z,44.77
2023-05-07T17:18:15.931Z,44.78
2023-05-07T17:20:44.525Z,44.88
2023-05-07T17:23:14.018Z,45.00
2023-05-07T17:25:45.961Z,45.03
2023-05-07T17:28:14.965Z,45.15
2023-05-07T17:30:43.764Z,45.41
2023-05-07T17:33:20.953Z,45.32
2023-05-07T17:35:50.537Z,45.32
2023-05-07T17:38:19.415Z,45.28
2023-05-07T17:40:48.704Z,45.47
2023-05-07T17:43:17.639Z,45.50
2023-05-07T17:45:46.962Z,45.43
2023-05-07T17:48:16.001Z,45.38
2023-05-07T17:50:44.950Z,45.25
2023-05-07T17:53:13.920Z,45.22
2023-05-07T17:55:44.021Z,45.39
2023-05-07T17:58:13.056Z,45.31
2023-05-07T18:00:41.666Z,45.42
2023-05-07T18:03:11.045Z,45.52
2023-05-07T18:05:39.985Z,45.36
2023-05-07T18:08:08.934Z,45.35
2023-05-07T18:10:37.711Z,45.35
2023-05-07T18:13:06.634Z,45.37
2023-05-07T18:15:35.296Z,45.52
2023-05-07T18:18:04.431Z,45.49
2023-05-07T18:20:32.968Z,45.38
2023-05-07T18:23:01.904Z,45.23
2023-05-07T18:25:31.089Z,45.37
2023-05-07T18:28:01.395Z,45.31
2023-05-07T18:30:29.976Z,45.28
2023-05-07T18:32:58.922Z,45.68
2023-05-07T18:35:27.517Z,45.82
2023-05-07T18:37:56.473Z,46.15
2023-05-07T18:40:25.125Z,46.20
2023-05-07T18:42:54.195Z,46.30
2023-05-07T18:45:22.803Z,46.44
2023-05-07T18:47:51.838Z,46.47
2023-05-07T18:50:20.567Z,46.75
2023-05-07T18:52:49.506Z,46.93
2023-05-07T18:55:18.670Z,47.07
2023-05-07T18:57:47.828Z,47.30
2023-05-07T19:00:16.969Z,47.75
2023-05-07T19:02:45.860Z,47.80
2023-05-07T19:05:14.470Z,48.19
2023-05-07T19:07:43.304Z,48.59
2023-05-07T19:10:11.882Z,49.00
2023-05-07T19:12:41.131Z,49.78
2023-05-07T19:15:10.424Z,49.97
2023-05-07T19:17:39.358Z,50.33
2023-05-07T19:20:12.049Z,50.32
2023-05-07T19:22:43.233Z,50.16
2023-05-07T19:25:13.519Z,50.14
2023-05-07T19:27:42.563Z,50.37
2023-05-07T19:30:11.819Z,50.67
2023-05-07T19:32:40.891Z,50.98
2023-05-07T19:35:09.890Z,51.00
2023-05-07T19:37:39.415Z,51.67
2023-05-07T19:40:09.688Z,51.66
2023-05-07T19:42:38.936Z,51.73
2023-05-07T19:45:08.265Z,51.64
2023-05-07T19:47:37.402Z,51.53
2023-05-07T19:50:06.950Z,51.73
2023-05-07T19:52:36.756Z,51.93
2023-05-07T19:55:06.196Z,52.08
2023-05-07T19:57:35.493Z,52.48
2023-05-07T20:00:07.125Z,53.21
2023-05-07T20:02:42.308Z,53.17
2023-05-07T20:05:11.648Z,53.08
2023-05-07T20:07:41.228Z,52.90
2023-05-07T20:10:10.383Z,52.64
2023-05-07T20:12:39.955Z,53.16
2023-05-07T20:15:09.596Z,52.90
2023-05-07T20:17:38.633Z,52.97
2023-05-07T20:20:08.120Z,52.81
2023-05-07T20:22:37.153Z,52.98
2023-05-07T20:25:06.930Z,52.82
2023-05-07T20:27:36.500Z,52.95
2023-05-07T20:30:06.931Z,53.03
2023-05-07T20:32:36.796Z,52.89
2023-05-07T20:35:06.715Z,52.80
2023-05-07T20:37:36.149Z,52.39
2023-05-07T20:40:05.523Z,52.50
2023-05-07T20:42:34.498Z,52.33
2023-05-07T20:45:04.113Z,52.31
2023-05-07T20:47:34.022Z,51.96
2023-05-07T20:50:03.414Z,52.03
2023-05-07T20:52:32.286Z,51.79
2023-05-07T20:55:00.837Z,51.69
2023-05-07T20:57:29.920Z,51.86
2023-05-07T20:59:59.453Z,51.85
2023-05-07T21:02:28.623Z,51.71
2023-05-07T21:04:57.329Z,51.58
2023-05-07T21:07:26.242Z,51.66
2023-05-07T21:09:54.824Z,51.31
2023-05-07T21:12:24.105Z,51.31
2023-05-07T21:14:52.646Z,51.23
2023-05-07T21:17:21.558Z,51.24
2023-05-07T21:19:50.316Z,50.69
2023-05-07T21:22:19.225Z,51.24
2023-05-07T21:24:47.862Z,51.07
2023-05-07T21:27:16.753Z,51.00
2023-05-07T21:29:45.411Z,50.94
2023-05-07T21:32:14.272Z,50.97
2023-05-07T21:34:42.843Z,50.85
2023-05-07T21:37:11.637Z,51.00
2023-05-07T21:39:40.204Z,50.89
2023-05-07T21:42:09.013Z,50.76
2023-05-07T21:44:37.574Z,50.86
2023-05-07T21:47:06.483Z,50.54
2023-05-07T21:49:35.042Z,49.96
2023-05-07T21:52:04.133Z,49.62
2023-05-07T21:54:32.645Z,47.98
2023-05-07T21:57:02.435Z,46.75
2023-05-07T21:59:30.999Z,46.33
2023-05-07T22:02:01.129Z,46.19
2023-05-07T22:04:29.905Z,46.00
2023-05-07T22:06:58.886Z,46.01
2023-05-07T22:09:27.453Z,46.33
2023-05-07T22:11:56.485Z,46.60
2023-05-07T22:14:25.023Z,46.98
2023-05-07T22:16:54.063Z,47.43
2023-05-07T22:19:22.639Z,47.97
2023-05-07T22:21:51.625Z,48.74
2023-05-07T22:24:20.174Z,49.28
2023-05-07T22:26:49.172Z,49.79
2023-05-07T22:29:17.699Z,49.95
2023-05-07T22:31:46.557Z,50.39
2023-05-07T22:34:15.225Z,50.37
2023-05-07T22:36:44.311Z,50.16
2023-05-07T22:39:12.866Z,50.22
2023-05-07T22:41:41.802Z,50.40
2023-05-07T22:44:10.364Z,50.44
2023-05-07T22:46:39.605Z,50.55
2023-05-07T22:49:08.188Z,50.57
2023-05-07T22:51:37.034Z,50.48
2023-05-07T22:54:05.705Z,50.67
2023-05-07T22:56:34.755Z,50.62
2023-05-07T22:59:03.186Z,50.81
2023-05-07T23:01:31.989Z,50.97
2023-05-07T23:04:00.533Z,51.30
2023-05-07T23:06:29.474Z,51.33
2023-05-07T23:08:59.142Z,51.58
2023-05-07T23:11:28.903Z,51.44
2023-05-07T23:13:57.435Z,51.67
2023-05-07T23:16:26.346Z,51.50
2023-05-07T23:18:55.789Z,51.66
2023-05-07T23:21:24.784Z,51.46
2023-05-07T23:23:53.324Z,51.65
2023-05-07T23:26:22.185Z,51.92
2023-05-07T23:28:50.665Z,52.09
2023-05-07T23:31:19.831Z,52.16
2023-05-07T23:33:48.391Z,52.13
2023-05-07T23:36:17.210Z,52.12
2023-05-07T23:38:46.084Z,52.13
2023-05-07T23:41:14.949Z,52.00
2023-05-07T23:43:43.620Z,52.19
2023-05-07T23:46:12.537Z,52.09
2023-05-07T23:48:41.207Z,51.93
2023-05-07T23:51:10.071Z,52.07
2023-05-07T23:53:38.689Z,52.06
2023-05-07T23:56:07.613Z,52.29
2023-05-07T23:58:36.281Z,52.22
